sensor_id;sensor_type;location;lat;lon;timestamp;P1;durP1;ratioP1;P2;durP2;ratioP2
25023;SDS011;13033;50.936;5.334;2022-07-29T00:02:06;3.30;;;2.58;;
25023;SDS011;13033;50.936;5.334;2022-07-29T00:04:34;7.32;;;2.70;;
25023;SDS011;13033;50.936;5.334;2022-07-29T00:07:00;12.25;;;3.25;;
25023;SDS011;13033;50.936;5.334;2022-07-29T00:09:25;6.35;;;2.78;;
25023;SDS011;13033;50.936;5.334;2022-07-29T00:11:51;6.40;;;2.40;;
25023;SDS011;13033;50.936;5.334;2022-07-29T00:14:17;10.50;;;3.10;;
25023;SDS011;13033;50.936;5.334;2022-07-29T00:16:43;8.57;;;3.20;;
25023;SDS011;13033;50.936;5.334;2022-07-29T00:19:08;9.68;;;3.20;;
25023;SDS011;13033;50.936;5.334;2022-07-29T00:21:34;7.60;;;3.08;;
25023;SDS011;13033;50.936;5.334;2022-07-29T00:23:59;4.43;;;2.90;;
25023;SDS011;13033;50.936;5.334;2022-07-29T00:26:25;8.90;;;3.40;;
25023;SDS011;13033;50.936;5.334;2022-07-29T00:28:52;9.68;;;3.55;;
25023;SDS011;13033;50.936;5.334;2022-07-29T00:31:18;9.27;;;3.53;;
25023;SDS011;13033;50.936;5.334;2022-07-29T00:33:43;8.73;;;2.95;;
25023;SDS011;13033;50.936;5.334;2022-07-29T00:36:09;8.52;;;3.13;;
25023;SDS011;13033;50.936;5.334;2022-07-29T00:38:35;10.43;;;2.90;;
25023;SDS011;13033;50.936;5.334;2022-07-29T00:41:00;6.32;;;3.08;;
25023;SDS011;13033;50.936;5.334;2022-07-29T00:43:26;6.85;;;3.20;;
25023;SDS011;13033;50.936;5.334;2022-07-29T00:45:52;12.60;;;3.45;;
25023;SDS011;13033;50.936;5.334;2022-07-29T00:48:17;8.27;;;3.00;;
25023;SDS011;13033;50.936;5.334;2022-07-29T00:50:43;7.13;;;3.28;;
25023;SDS011;13033;50.936;5.334;2022-07-29T00:53:09;6.15;;;3.00;;
25023;SDS011;13033;50.936;5.334;2022-07-29T00:55:37;6.00;;;2.85;;
25023;SDS011;13033;50.936;5.334;2022-07-29T00:58:02;6.30;;;2.70;;
25023;SDS011;13033;50.936;5.334;2022-07-29T01:00:28;6.43;;;2.58;;
25023;SDS011;13033;50.936;5.334;2022-07-29T01:02:54;7.55;;;2.97;;
25023;SDS011;13033;50.936;5.334;2022-07-29T01:05:21;9.75;;;2.45;;
25023;SDS011;13033;50.936;5.334;2022-07-29T01:07:49;8.70;;;2.70;;
25023;SDS011;13033;50.936;5.334;2022-07-29T01:10:18;6.72;;;2.72;;
25023;SDS011;13033;50.936;5.334;2022-07-29T01:12:46;7.85;;;2.50;;
25023;SDS011;13033;50.936;5.334;2022-07-29T01:15:14;8.45;;;2.60;;
25023;SDS011;13033;50.936;5.334;2022-07-29T01:29:18;5.30;;;2.53;;
25023;SDS011;13033;50.936;5.334;2022-07-29T01:32:08;10.00;;;2.67;;
25023;SDS011;13033;50.936;5.334;2022-07-29T01:37:32;6.22;;;2.90;;
25023;SDS011;13033;50.936;5.334;2022-07-29T01:40:07;8.57;;;2.53;;
25023;SDS011;13033;50.936;5.334;2022-07-29T01:42:45;7.22;;;2.72;;
25023;SDS011;13033;50.936;5.334;2022-07-29T01:45:37;6.25;;;3.33;;
25023;SDS011;13033;50.936;5.334;2022-07-29T01:50:42;4.88;;;3.20;;
25023;SDS011;13033;50.936;5.334;2022-07-29T01:53:12;6.38;;;3.72;;
25023;SDS011;13033;50.936;5.334;2022-07-29T01:55:44;9.02;;;3.53;;
25023;SDS011;13033;50.936;5.334;2022-07-29T01:58:11;11.85;;;3.50;;
25023;SDS011;13033;50.936;5.334;2022-07-29T02:00:38;7.13;;;3.78;;
25023;SDS011;13033;50.936;5.334;2022-07-29T02:03:07;8.70;;;3.60;;
25023;SDS011;13033;50.936;5.334;2022-07-29T02:05:36;7.63;;;3.40;;
25023;SDS011;13033;50.936;5.334;2022-07-29T02:08:04;6.13;;;3.35;;
25023;SDS011;13033;50.936;5.334;2022-07-29T02:10:32;8.23;;;3.70;;
25023;SDS011;13033;50.936;5.334;2022-07-29T02:12:59;11.25;;;3.38;;
25023;SDS011;13033;50.936;5.334;2022-07-29T02:15:27;5.78;;;3.30;;
25023;SDS011;13033;50.936;5.334;2022-07-29T02:18:00;10.48;;;3.88;;
25023;SDS011;13033;50.936;5.334;2022-07-29T02:20:28;9.70;;;3.75;;
25023;SDS011;13033;50.936;5.334;2022-07-29T02:22:54;9.00;;;3.97;;
25023;SDS011;13033;50.936;5.334;2022-07-29T02:25:23;7.38;;;3.83;;
25023;SDS011;13033;50.936;5.334;2022-07-29T02:27:50;9.95;;;3.67;;
25023;SDS011;13033;50.936;5.334;2022-07-29T02:30:17;8.18;;;3.40;;
25023;SDS011;13033;50.936;5.334;2022-07-29T02:32:44;8.70;;;3.35;;
25023;SDS011;13033;50.936;5.334;2022-07-29T02:35:12;7.05;;;3.67;;
25023;SDS011;13033;50.936;5.334;2022-07-29T02:37:40;10.00;;;3.67;;
25023;SDS011;13033;50.936;5.334;2022-07-29T02:40:08;9.80;;;3.95;;
25023;SDS011;13033;50.936;5.334;2022-07-29T02:42:38;6.75;;;3.80;;
25023;SDS011;13033;50.936;5.334;2022-07-29T02:45:07;7.45;;;3.38;;
25023;SDS011;13033;50.936;5.334;2022-07-29T02:47:35;8.18;;;3.58;;
25023;SDS011;13033;50.936;5.334;2022-07-29T02:50:13;7.00;;;3.80;;
25023;SDS011;13033;50.936;5.334;2022-07-29T02:52:57;9.80;;;4.10;;
25023;SDS011;13033;50.936;5.334;2022-07-29T02:55:40;6.00;;;3.60;;
25023;SDS011;13033;50.936;5.334;2022-07-29T03:00:47;7.78;;;3.50;;
25023;SDS011;13033;50.936;5.334;2022-07-29T03:03:16;7.43;;;3.38;;
25023;SDS011;13033;50.936;5.334;2022-07-29T03:05:43;6.00;;;3.25;;
25023;SDS011;13033;50.936;5.334;2022-07-29T03:08:09;7.85;;;3.47;;
25023;SDS011;13033;50.936;5.334;2022-07-29T03:10:37;7.20;;;3.38;;
25023;SDS011;13033;50.936;5.334;2022-07-29T03:13:04;9.23;;;3.22;;
25023;SDS011;13033;50.936;5.334;2022-07-29T03:15:30;9.45;;;3.40;;
25023;SDS011;13033;50.936;5.334;2022-07-29T03:17:56;6.70;;;3.58;;
25023;SDS011;13033;50.936;5.334;2022-07-29T03:20:24;5.53;;;3.85;;
25023;SDS011;13033;50.936;5.334;2022-07-29T03:22:51;9.00;;;3.38;;
25023;SDS011;13033;50.936;5.334;2022-07-29T03:25:18;5.93;;;3.67;;
25023;SDS011;13033;50.936;5.334;2022-07-29T03:27:45;4.13;;;3.30;;
25023;SDS011;13033;50.936;5.334;2022-07-29T03:30:12;10.65;;;3.42;;
25023;SDS011;13033;50.936;5.334;2022-07-29T03:32:38;7.18;;;3.80;;
25023;SDS011;13033;50.936;5.334;2022-07-29T03:35:04;6.72;;;3.90;;
25023;SDS011;13033;50.936;5.334;2022-07-29T03:37:31;12.25;;;3.80;;
25023;SDS011;13033;50.936;5.334;2022-07-29T03:39:58;8.25;;;4.32;;
25023;SDS011;13033;50.936;5.334;2022-07-29T03:42:27;9.80;;;4.32;;
25023;SDS011;13033;50.936;5.334;2022-07-29T03:44:55;10.48;;;3.83;;
25023;SDS011;13033;50.936;5.334;2022-07-29T03:47:24;8.50;;;3.75;;
25023;SDS011;13033;50.936;5.334;2022-07-29T03:49:55;5.72;;;3.42;;
25023;SDS011;13033;50.936;5.334;2022-07-29T03:52:25;7.78;;;3.50;;
25023;SDS011;13033;50.936;5.334;2022-07-29T03:54:51;7.32;;;3.53;;
25023;SDS011;13033;50.936;5.334;2022-07-29T03:57:18;7.45;;;3.75;;
25023;SDS011;13033;50.936;5.334;2022-07-29T03:59:48;5.22;;;3.22;;
25023;SDS011;13033;50.936;5.334;2022-07-29T04:02:15;5.82;;;3.72;;
25023;SDS011;13033;50.936;5.334;2022-07-29T04:04:41;6.47;;;3.78;;
25023;SDS011;13033;50.936;5.334;2022-07-29T04:07:07;8.02;;;4.10;;
25023;SDS011;13033;50.936;5.334;2022-07-29T04:09:37;4.93;;;3.65;;
25023;SDS011;13033;50.936;5.334;2022-07-29T04:12:03;8.30;;;4.20;;
25023;SDS011;13033;50.936;5.334;2022-07-29T04:14:29;5.65;;;3.67;;
25023;SDS011;13033;50.936;5.334;2022-07-29T04:16:58;8.98;;;3.78;;
25023;SDS011;13033;50.936;5.334;2022-07-29T04:19:25;8.25;;;3.65;;
25023;SDS011;13033;50.936;5.334;2022-07-29T04:21:50;10.23;;;3.80;;
25023;SDS011;13033;50.936;5.334;2022-07-29T04:24:16;6.53;;;3.30;;
25023;SDS011;13033;50.936;5.334;2022-07-29T04:26:42;6.30;;;3.58;;
25023;SDS011;13033;50.936;5.334;2022-07-29T04:29:07;7.88;;;3.78;;
25023;SDS011;13033;50.936;5.334;2022-07-29T04:31:33;6.75;;;3.80;;
25023;SDS011;13033;50.936;5.334;2022-07-29T04:33:59;10.65;;;3.92;;
25023;SDS011;13033;50.936;5.334;2022-07-29T04:36:24;8.18;;;3.83;;
25023;SDS011;13033;50.936;5.334;2022-07-29T04:38:50;7.32;;;4.10;;
25023;SDS011;13033;50.936;5.334;2022-07-29T04:41:16;7.82;;;3.85;;
25023;SDS011;13033;50.936;5.334;2022-07-29T04:43:41;5.53;;;3.58;;
25023;SDS011;13033;50.936;5.334;2022-07-29T04:46:07;8.60;;;4.00;;
25023;SDS011;13033;50.936;5.334;2022-07-29T04:48:33;9.02;;;4.43;;
25023;SDS011;13033;50.936;5.334;2022-07-29T04:50:59;8.15;;;4.60;;
25023;SDS011;13033;50.936;5.334;2022-07-29T04:53:24;7.60;;;4.38;;
25023;SDS011;13033;50.936;5.334;2022-07-29T04:55:50;7.30;;;4.68;;
25023;SDS011;13033;50.936;5.334;2022-07-29T04:58:16;9.90;;;4.90;;
25023;SDS011;13033;50.936;5.334;2022-07-29T05:00:41;9.25;;;4.50;;
25023;SDS011;13033;50.936;5.334;2022-07-29T05:03:07;8.13;;;4.78;;
25023;SDS011;13033;50.936;5.334;2022-07-29T05:05:33;10.45;;;5.32;;
25023;SDS011;13033;50.936;5.334;2022-07-29T05:07:58;7.93;;;4.45;;
25023;SDS011;13033;50.936;5.334;2022-07-29T05:10:24;9.73;;;5.15;;
25023;SDS011;13033;50.936;5.334;2022-07-29T05:12:50;7.28;;;4.97;;
25023;SDS011;13033;50.936;5.334;2022-07-29T05:15:16;9.82;;;4.82;;
25023;SDS011;13033;50.936;5.334;2022-07-29T05:17:42;12.70;;;5.45;;
25023;SDS011;13033;50.936;5.334;2022-07-29T05:20:08;11.27;;;5.60;;
25023;SDS011;13033;50.936;5.334;2022-07-29T05:22:34;9.98;;;5.90;;
25023;SDS011;13033;50.936;5.334;2022-07-29T05:25:00;8.20;;;5.68;;
25023;SDS011;13033;50.936;5.334;2022-07-29T05:27:26;9.85;;;5.95;;
25023;SDS011;13033;50.936;5.334;2022-07-29T05:29:51;10.38;;;5.60;;
25023;SDS011;13033;50.936;5.334;2022-07-29T05:32:17;10.80;;;6.07;;
25023;SDS011;13033;50.936;5.334;2022-07-29T05:34:42;13.10;;;6.22;;
25023;SDS011;13033;50.936;5.334;2022-07-29T05:37:08;8.23;;;5.90;;
25023;SDS011;13033;50.936;5.334;2022-07-29T05:39:34;8.18;;;5.72;;
25023;SDS011;13033;50.936;5.334;2022-07-29T05:42:00;9.82;;;6.13;;
25023;SDS011;13033;50.936;5.334;2022-07-29T05:44:25;10.73;;;6.32;;
25023;SDS011;13033;50.936;5.334;2022-07-29T05:46:51;11.43;;;6.38;;
25023;SDS011;13033;50.936;5.334;2022-07-29T05:49:16;11.27;;;6.50;;
25023;SDS011;13033;50.936;5.334;2022-07-29T05:51:42;9.13;;;5.90;;
25023;SDS011;13033;50.936;5.334;2022-07-29T05:54:08;11.73;;;6.25;;
25023;SDS011;13033;50.936;5.334;2022-07-29T05:56:35;13.10;;;6.18;;
25023;SDS011;13033;50.936;5.334;2022-07-29T05:59:01;10.60;;;6.20;;
25023;SDS011;13033;50.936;5.334;2022-07-29T06:01:28;7.60;;;6.20;;
25023;SDS011;13033;50.936;5.334;2022-07-29T06:03:54;9.05;;;5.95;;
25023;SDS011;13033;50.936;5.334;2022-07-29T06:06:19;10.80;;;5.97;;
25023;SDS011;13033;50.936;5.334;2022-07-29T06:08:45;9.52;;;6.25;;
25023;SDS011;13033;50.936;5.334;2022-07-29T06:11:11;10.13;;;5.97;;
25023;SDS011;13033;50.936;5.334;2022-07-29T06:13:36;12.82;;;6.30;;
25023;SDS011;13033;50.936;5.334;2022-07-29T06:16:02;10.90;;;5.50;;
25023;SDS011;13033;50.936;5.334;2022-07-29T06:18:29;8.10;;;5.93;;
25023;SDS011;13033;50.936;5.334;2022-07-29T06:20:54;9.98;;;5.95;;
25023;SDS011;13033;50.936;5.334;2022-07-29T06:23:20;10.93;;;5.82;;
25023;SDS011;13033;50.936;5.334;2022-07-29T06:25:46;9.65;;;5.70;;
25023;SDS011;13033;50.936;5.334;2022-07-29T06:28:11;10.18;;;5.93;;
25023;SDS011;13033;50.936;5.334;2022-07-29T06:30:37;9.13;;;5.97;;
25023;SDS011;13033;50.936;5.334;2022-07-29T06:33:04;10.10;;;5.72;;
25023;SDS011;13033;50.936;5.334;2022-07-29T06:35:30;10.75;;;6.00;;
25023;SDS011;13033;50.936;5.334;2022-07-29T06:37:57;7.60;;;6.05;;
25023;SDS011;13033;50.936;5.334;2022-07-29T06:40:23;9.90;;;5.80;;
25023;SDS011;13033;50.936;5.334;2022-07-29T06:43:07;8.07;;;5.93;;
25023;SDS011;13033;50.936;5.334;2022-07-29T06:45:33;12.73;;;5.97;;
25023;SDS011;13033;50.936;5.334;2022-07-29T06:48:00;8.30;;;5.82;;
25023;SDS011;13033;50.936;5.334;2022-07-29T06:50:25;13.93;;;6.75;;
25023;SDS011;13033;50.936;5.334;2022-07-29T06:52:51;11.48;;;5.88;;
25023;SDS011;13033;50.936;5.334;2022-07-29T06:55:17;10.15;;;6.32;;
25023;SDS011;13033;50.936;5.334;2022-07-29T06:57:44;9.30;;;6.72;;
25023;SDS011;13033;50.936;5.334;2022-07-29T07:00:10;8.38;;;5.80;;
25023;SDS011;13033;50.936;5.334;2022-07-29T07:02:36;9.80;;;6.53;;
25023;SDS011;13033;50.936;5.334;2022-07-29T07:05:02;8.15;;;6.28;;
25023;SDS011;13033;50.936;5.334;2022-07-29T07:07:28;11.27;;;6.72;;
25023;SDS011;13033;50.936;5.334;2022-07-29T07:09:53;8.90;;;5.88;;
25023;SDS011;13033;50.936;5.334;2022-07-29T07:12:19;8.63;;;6.07;;
25023;SDS011;13033;50.936;5.334;2022-07-29T07:14:45;10.23;;;6.22;;
25023;SDS011;13033;50.936;5.334;2022-07-29T07:17:10;11.20;;;6.40;;
25023;SDS011;13033;50.936;5.334;2022-07-29T07:19:36;10.20;;;6.82;;
25023;SDS011;13033;50.936;5.334;2022-07-29T07:22:02;10.13;;;5.82;;
25023;SDS011;13033;50.936;5.334;2022-07-29T07:24:27;10.13;;;6.13;;
25023;SDS011;13033;50.936;5.334;2022-07-29T07:26:53;8.75;;;6.25;;
25023;SDS011;13033;50.936;5.334;2022-07-29T07:29:19;14.27;;;6.63;;
25023;SDS011;13033;50.936;5.334;2022-07-29T07:31:44;9.38;;;6.18;;
25023;SDS011;13033;50.936;5.334;2022-07-29T07:34:10;10.05;;;6.30;;
25023;SDS011;13033;50.936;5.334;2022-07-29T07:36:36;15.88;;;6.40;;
25023;SDS011;13033;50.936;5.334;2022-07-29T07:39:01;8.25;;;5.63;;
25023;SDS011;13033;50.936;5.334;2022-07-29T07:41:28;9.95;;;5.72;;
25023;SDS011;13033;50.936;5.334;2022-07-29T07:43:59;9.63;;;7.18;;
25023;SDS011;13033;50.936;5.334;2022-07-29T07:46:25;9.48;;;6.38;;
25023;SDS011;13033;50.936;5.334;2022-07-29T07:48:50;9.75;;;6.55;;
25023;SDS011;13033;50.936;5.334;2022-07-29T07:51:17;10.73;;;6.22;;
25023;SDS011;13033;50.936;5.334;2022-07-29T07:53:43;9.40;;;5.57;;
25023;SDS011;13033;50.936;5.334;2022-07-29T07:56:09;11.05;;;6.10;;
25023;SDS011;13033;50.936;5.334;2022-07-29T07:58:35;10.30;;;5.78;;
25023;SDS011;13033;50.936;5.334;2022-07-29T08:01:01;8.85;;;6.43;;
25023;SDS011;13033;50.936;5.334;2022-07-29T08:03:26;10.73;;;6.55;;
25023;SDS011;13033;50.936;5.334;2022-07-29T08:05:52;8.57;;;5.78;;
25023;SDS011;13033;50.936;5.334;2022-07-29T08:08:19;11.93;;;5.93;;
25023;SDS011;13033;50.936;5.334;2022-07-29T08:10:44;8.35;;;5.88;;
25023;SDS011;13033;50.936;5.334;2022-07-29T08:13:25;9.05;;;6.07;;
25023;SDS011;13033;50.936;5.334;2022-07-29T08:15:53;9.27;;;5.50;;
25023;SDS011;13033;50.936;5.334;2022-07-29T08:18:30;13.18;;;5.32;;
25023;SDS011;13033;50.936;5.334;2022-07-29T08:20:56;9.50;;;5.60;;
25023;SDS011;13033;50.936;5.334;2022-07-29T08:23:23;11.88;;;6.15;;
25023;SDS011;13033;50.936;5.334;2022-07-29T08:25:49;9.43;;;5.45;;
25023;SDS011;13033;50.936;5.334;2022-07-29T08:28:15;10.55;;;6.78;;
25023;SDS011;13033;50.936;5.334;2022-07-29T08:30:42;8.93;;;5.47;;
25023;SDS011;13033;50.936;5.334;2022-07-29T08:33:07;9.85;;;5.65;;
25023;SDS011;13033;50.936;5.334;2022-07-29T08:35:33;10.35;;;5.80;;
25023;SDS011;13033;50.936;5.334;2022-07-29T08:37:59;8.85;;;5.03;;
25023;SDS011;13033;50.936;5.334;2022-07-29T08:40:24;10.10;;;5.72;;
25023;SDS011;13033;50.936;5.334;2022-07-29T08:42:50;8.80;;;4.88;;
25023;SDS011;13033;50.936;5.334;2022-07-29T08:45:16;9.93;;;5.20;;
25023;SDS011;13033;50.936;5.334;2022-07-29T08:47:43;8.60;;;5.55;;
25023;SDS011;13033;50.936;5.334;2022-07-29T08:50:10;7.97;;;5.93;;
25023;SDS011;13033;50.936;5.334;2022-07-29T08:52:38;10.15;;;5.53;;
25023;SDS011;13033;50.936;5.334;2022-07-29T08:55:06;7.90;;;5.22;;
25023;SDS011;13033;50.936;5.334;2022-07-29T08:57:33;7.85;;;5.68;;
25023;SDS011;13033;50.936;5.334;2022-07-29T09:00:00;9.77;;;5.82;;
25023;SDS011;13033;50.936;5.334;2022-07-29T09:02:28;11.25;;;6.18;;
25023;SDS011;13033;50.936;5.334;2022-07-29T09:04:58;10.57;;;5.38;;
25023;SDS011;13033;50.936;5.334;2022-07-29T09:07:26;7.97;;;5.47;;
25023;SDS011;13033;50.936;5.334;2022-07-29T09:09:52;6.38;;;4.70;;
25023;SDS011;13033;50.936;5.334;2022-07-29T09:12:18;7.88;;;5.25;;
25023;SDS011;13033;50.936;5.334;2022-07-29T09:14:44;8.13;;;4.78;;
25023;SDS011;13033;50.936;5.334;2022-07-29T09:17:09;9.63;;;5.28;;
25023;SDS011;13033;50.936;5.334;2022-07-29T09:19:36;7.40;;;5.22;;
25023;SDS011;13033;50.936;5.334;2022-07-29T09:22:06;7.13;;;5.00;;
25023;SDS011;13033;50.936;5.334;2022-07-29T09:27:07;7.47;;;5.35;;
25023;SDS011;13033;50.936;5.334;2022-07-29T09:29:35;7.97;;;4.87;;
25023;SDS011;13033;50.936;5.334;2022-07-29T09:32:01;12.27;;;5.57;;
25023;SDS011;13033;50.936;5.334;2022-07-29T09:34:32;9.20;;;5.28;;
25023;SDS011;13033;50.936;5.334;2022-07-29T09:36:58;9.10;;;5.05;;
25023;SDS011;13033;50.936;5.334;2022-07-29T09:39:31;6.75;;;5.20;;
25023;SDS011;13033;50.936;5.334;2022-07-29T09:42:03;9.60;;;5.15;;
25023;SDS011;13033;50.936;5.334;2022-07-29T09:47:13;7.90;;;5.28;;
25023;SDS011;13033;50.936;5.334;2022-07-29T09:50:12;10.65;;;5.30;;
25023;SDS011;13033;50.936;5.334;2022-07-29T09:52:31;6.10;;;5.22;;
25023;SDS011;13033;50.936;5.334;2022-07-29T09:55:06;9.25;;;5.22;;
25023;SDS011;13033;50.936;5.334;2022-07-29T09:57:33;8.70;;;4.95;;
25023;SDS011;13033;50.936;5.334;2022-07-29T10:00:00;7.10;;;4.80;;
25023;SDS011;13033;50.936;5.334;2022-07-29T10:02:30;6.45;;;4.68;;
25023;SDS011;13033;50.936;5.334;2022-07-29T10:04:56;5.65;;;4.03;;
25023;SDS011;13033;50.936;5.334;2022-07-29T10:07:22;5.82;;;3.58;;
25023;SDS011;13033;50.936;5.334;2022-07-29T10:09:56;7.60;;;4.03;;
25023;SDS011;13033;50.936;5.334;2022-07-29T10:12:22;7.75;;;4.18;;
25023;SDS011;13033;50.936;5.334;2022-07-29T10:14:48;5.18;;;3.53;;
25023;SDS011;13033;50.936;5.334;2022-07-29T10:17:15;6.88;;;3.80;;
25023;SDS011;13033;50.936;5.334;2022-07-29T10:19:42;7.65;;;3.47;;
25023;SDS011;13033;50.936;5.334;2022-07-29T10:22:08;7.13;;;3.60;;
25023;SDS011;13033;50.936;5.334;2022-07-29T10:24:35;5.38;;;3.90;;
25023;SDS011;13033;50.936;5.334;2022-07-29T10:27:06;5.80;;;3.47;;
25023;SDS011;13033;50.936;5.334;2022-07-29T10:29:33;6.63;;;3.35;;
25023;SDS011;13033;50.936;5.334;2022-07-29T10:43:25;5.70;;;3.15;;
25023;SDS011;13033;50.936;5.334;2022-07-29T10:45:57;3.33;;;2.70;;
25023;SDS011;13033;50.936;5.334;2022-07-29T10:48:25;5.18;;;3.10;;
25023;SDS011;13033;50.936;5.334;2022-07-29T10:53:47;5.43;;;3.60;;
25023;SDS011;13033;50.936;5.334;2022-07-29T10:56:24;3.88;;;3.05;;
25023;SDS011;13033;50.936;5.334;2022-07-29T11:01:46;5.70;;;2.70;;
25023;SDS011;13033;50.936;5.334;2022-07-29T11:04:13;3.50;;;3.00;;
25023;SDS011;13033;50.936;5.334;2022-07-29T11:09:29;6.97;;;3.35;;
25023;SDS011;13033;50.936;5.334;2022-07-29T11:11:55;6.90;;;3.63;;
25023;SDS011;13033;50.936;5.334;2022-07-29T11:17:18;6.50;;;3.10;;
25023;SDS011;13033;50.936;5.334;2022-07-29T11:19:44;7.53;;;3.28;;
25023;SDS011;13033;50.936;5.334;2022-07-29T11:22:09;5.82;;;3.10;;
25023;SDS011;13033;50.936;5.334;2022-07-29T11:24:36;6.70;;;3.10;;
25023;SDS011;13033;50.936;5.334;2022-07-29T11:27:18;4.00;;;3.00;;
25023;SDS011;13033;50.936;5.334;2022-07-29T11:29:54;6.32;;;3.00;;
25023;SDS011;13033;50.936;5.334;2022-07-29T11:32:23;5.10;;;2.83;;
25023;SDS011;13033;50.936;5.334;2022-07-29T11:37:42;3.75;;;3.05;;
25023;SDS011;13033;50.936;5.334;2022-07-29T11:40:09;8.05;;;3.35;;
25023;SDS011;13033;50.936;5.334;2022-07-29T11:42:37;3.65;;;2.80;;
25023;SDS011;13033;50.936;5.334;2022-07-29T11:45:05;3.60;;;2.90;;
25023;SDS011;13033;50.936;5.334;2022-07-29T11:47:31;7.05;;;3.00;;
25023;SDS011;13033;50.936;5.334;2022-07-29T11:50:02;6.93;;;3.30;;
25023;SDS011;13033;50.936;5.334;2022-07-29T11:52:39;4.82;;;2.90;;
25023;SDS011;13033;50.936;5.334;2022-07-29T11:55:14;6.85;;;3.47;;
25023;SDS011;13033;50.936;5.334;2022-07-29T12:00:30;6.13;;;3.40;;
25023;SDS011;13033;50.936;5.334;2022-07-29T12:02:58;6.18;;;3.30;;
25023;SDS011;13033;50.936;5.334;2022-07-29T12:05:36;7.20;;;3.30;;
25023;SDS011;13033;50.936;5.334;2022-07-29T12:10:32;4.00;;;3.30;;
25023;SDS011;13033;50.936;5.334;2022-07-29T12:12:58;6.25;;;3.70;;
25023;SDS011;13033;50.936;5.334;2022-07-29T12:15:24;5.40;;;3.40;;
25023;SDS011;13033;50.936;5.334;2022-07-29T12:17:51;8.35;;;4.03;;
25023;SDS011;13033;50.936;5.334;2022-07-29T12:20:27;6.18;;;3.88;;
25023;SDS011;13033;50.936;5.334;2022-07-29T12:22:54;6.80;;;2.75;;
25023;SDS011;13033;50.936;5.334;2022-07-29T12:25:21;6.57;;;2.90;;
25023;SDS011;13033;50.936;5.334;2022-07-29T12:27:59;6.43;;;2.90;;
25023;SDS011;13033;50.936;5.334;2022-07-29T12:30:39;7.03;;;3.10;;
25023;SDS011;13033;50.936;5.334;2022-07-29T12:33:14;5.50;;;3.10;;
25023;SDS011;13033;50.936;5.334;2022-07-29T12:35:49;4.10;;;2.95;;
25023;SDS011;13033;50.936;5.334;2022-07-29T12:38:23;5.55;;;3.35;;
25023;SDS011;13033;50.936;5.334;2022-07-29T12:40:49;3.35;;;2.58;;
25023;SDS011;13033;50.936;5.334;2022-07-29T12:43:18;8.40;;;2.85;;
25023;SDS011;13033;50.936;5.334;2022-07-29T12:45:46;3.72;;;2.65;;
25023;SDS011;13033;50.936;5.334;2022-07-29T12:48:17;6.00;;;2.80;;
25023;SDS011;13033;50.936;5.334;2022-07-29T12:50:57;7.95;;;2.65;;
25023;SDS011;13033;50.936;5.334;2022-07-29T12:53:26;3.75;;;2.83;;
25023;SDS011;13033;50.936;5.334;2022-07-29T12:55:53;3.30;;;2.53;;
25023;SDS011;13033;50.936;5.334;2022-07-29T12:58:27;4.63;;;2.58;;
25023;SDS011;13033;50.936;5.334;2022-07-29T13:01:10;3.78;;;2.47;;
25023;SDS011;13033;50.936;5.334;2022-07-29T13:03:49;3.88;;;2.10;;
25023;SDS011;13033;50.936;5.334;2022-07-29T13:06:28;4.60;;;2.30;;
25023;SDS011;13033;50.936;5.334;2022-07-29T13:09:35;4.03;;;2.40;;
25023;SDS011;13033;50.936;5.334;2022-07-29T13:17:18;5.97;;;2.90;;
25023;SDS011;13033;50.936;5.334;2022-07-29T13:19:49;4.72;;;2.70;;
25023;SDS011;13033;50.936;5.334;2022-07-29T13:22:20;3.42;;;2.67;;
25023;SDS011;13033;50.936;5.334;2022-07-29T13:24:54;4.55;;;2.22;;
25023;SDS011;13033;50.936;5.334;2022-07-29T13:27:22;4.47;;;2.47;;
25023;SDS011;13033;50.936;5.334;2022-07-29T13:29:49;4.63;;;2.65;;
25023;SDS011;13033;50.936;5.334;2022-07-29T13:32:18;6.65;;;2.85;;
25023;SDS011;13033;50.936;5.334;2022-07-29T13:34:45;3.58;;;2.50;;
25023;SDS011;13033;50.936;5.334;2022-07-29T13:37:11;5.03;;;2.50;;
25023;SDS011;13033;50.936;5.334;2022-07-29T13:39:36;4.20;;;2.28;;
25023;SDS011;13033;50.936;5.334;2022-07-29T13:42:03;6.63;;;2.40;;
25023;SDS011;13033;50.936;5.334;2022-07-29T13:44:29;3.15;;;1.90;;
25023;SDS011;13033;50.936;5.334;2022-07-29T13:46:55;4.40;;;2.10;;
25023;SDS011;13033;50.936;5.334;2022-07-29T13:49:21;5.47;;;2.08;;
25023;SDS011;13033;50.936;5.334;2022-07-29T13:51:48;4.30;;;2.20;;
25023;SDS011;13033;50.936;5.334;2022-07-29T13:54:14;4.20;;;1.98;;
25023;SDS011;13033;50.936;5.334;2022-07-29T13:56:40;3.20;;;2.40;;
25023;SDS011;13033;50.936;5.334;2022-07-29T13:59:05;4.45;;;1.90;;
25023;SDS011;13033;50.936;5.334;2022-07-29T14:01:32;4.65;;;2.08;;
25023;SDS011;13033;50.936;5.334;2022-07-29T14:03:59;3.80;;;2.10;;
25023;SDS011;13033;50.936;5.334;2022-07-29T14:06:25;5.03;;;2.22;;
25023;SDS011;13033;50.936;5.334;2022-07-29T14:08:50;5.80;;;2.00;;
25023;SDS011;13033;50.936;5.334;2022-07-29T14:11:16;3.22;;;2.05;;
25023;SDS011;13033;50.936;5.334;2022-07-29T14:13:42;2.25;;;1.80;;
25023;SDS011;13033;50.936;5.334;2022-07-29T14:16:07;7.35;;;2.05;;
25023;SDS011;13033;50.936;5.334;2022-07-29T14:18:33;3.53;;;2.00;;
25023;SDS011;13033;50.936;5.334;2022-07-29T14:20:59;6.50;;;2.28;;
25023;SDS011;13033;50.936;5.334;2022-07-29T14:23:25;7.32;;;2.47;;
25023;SDS011;13033;50.936;5.334;2022-07-29T14:25:50;6.80;;;2.00;;
25023;SDS011;13033;50.936;5.334;2022-07-29T14:28:16;7.63;;;2.42;;
25023;SDS011;13033;50.936;5.334;2022-07-29T14:30:42;6.55;;;2.40;;
25023;SDS011;13033;50.936;5.334;2022-07-29T14:33:08;5.30;;;2.63;;
25023;SDS011;13033;50.936;5.334;2022-07-29T14:35:33;5.95;;;2.40;;
25023;SDS011;13033;50.936;5.334;2022-07-29T14:37:59;8.65;;;2.65;;
25023;SDS011;13033;50.936;5.334;2022-07-29T14:40:25;5.07;;;2.28;;
25023;SDS011;13033;50.936;5.334;2022-07-29T14:42:51;6.90;;;2.50;;
25023;SDS011;13033;50.936;5.334;2022-07-29T14:45:17;4.43;;;2.30;;
25023;SDS011;13033;50.936;5.334;2022-07-29T14:47:43;4.55;;;2.40;;
25023;SDS011;13033;50.936;5.334;2022-07-29T14:50:08;8.57;;;3.33;;
25023;SDS011;13033;50.936;5.334;2022-07-29T14:52:34;3.63;;;2.38;;
25023;SDS011;13033;50.936;5.334;2022-07-29T14:55:00;5.60;;;2.60;;
25023;SDS011;13033;50.936;5.334;2022-07-29T14:57:25;8.80;;;2.40;;
25023;SDS011;13033;50.936;5.334;2022-07-29T14:59:51;6.93;;;2.50;;
25023;SDS011;13033;50.936;5.334;2022-07-29T15:02:17;7.60;;;2.40;;
25023;SDS011;13033;50.936;5.334;2022-07-29T15:04:42;4.53;;;2.22;;
25023;SDS011;13033;50.936;5.334;2022-07-29T15:07:10;6.05;;;2.08;;
25023;SDS011;13033;50.936;5.334;2022-07-29T15:09:36;4.80;;;2.33;;
25023;SDS011;13033;50.936;5.334;2022-07-29T15:12:02;4.13;;;2.22;;
25023;SDS011;13033;50.936;5.334;2022-07-29T15:14:29;12.70;;;2.50;;
25023;SDS011;13033;50.936;5.334;2022-07-29T15:16:55;6.57;;;2.30;;
25023;SDS011;13033;50.936;5.334;2022-07-29T15:19:20;4.13;;;2.15;;
25023;SDS011;13033;50.936;5.334;2022-07-29T15:21:46;7.05;;;2.30;;
25023;SDS011;13033;50.936;5.334;2022-07-29T15:24:11;4.72;;;2.50;;
25023;SDS011;13033;50.936;5.334;2022-07-29T15:26:37;5.20;;;2.17;;
25023;SDS011;13033;50.936;5.334;2022-07-29T15:29:03;6.85;;;2.42;;
25023;SDS011;13033;50.936;5.334;2022-07-29T15:31:28;3.47;;;1.83;;
25023;SDS011;13033;50.936;5.334;2022-07-29T15:33:54;3.60;;;2.33;;
25023;SDS011;13033;50.936;5.334;2022-07-29T15:36:20;8.60;;;2.40;;
25023;SDS011;13033;50.936;5.334;2022-07-29T15:38:45;7.03;;;2.35;;
25023;SDS011;13033;50.936;5.334;2022-07-29T15:41:14;6.05;;;2.30;;
25023;SDS011;13033;50.936;5.334;2022-07-29T15:43:42;8.32;;;2.40;;
25023;SDS011;13033;50.936;5.334;2022-07-29T15:46:12;3.92;;;2.10;;
25023;SDS011;13033;50.936;5.334;2022-07-29T15:48:57;7.30;;;2.30;;
25023;SDS011;13033;50.936;5.334;2022-07-29T15:51:22;8.90;;;2.72;;